Warren, MA (01083)

1:08 PM EDT on September 02, 2015 (GMT -0400)
Old Bemis Farm | | Change Station
CLOSE
Current Station
Personal Weather Station
Location: West Brookfield, MA
Elevation: 823 ft
Nearby Weather Stations

Elev 823 ft 42.18 °N, 72.19 °W | Updated 12 minutes ago

Clear
Clear
82.4 °F
Feels Like 85 °F
N
3.1
Wind Variable Wind from SSW

Today
High -- | Low -- °F
--% Chance of Precip.
Yesterday
High -- | Low -- °F
Precip. -- in
6:14 AM 7:21 PM
Waning Gibbous, 79% visible
Pressure 29.98 in
Visibility 10.0 miles
Clouds Clear
Heat Index 85 °F
Dew Point 68 °F
Humidity 61%
Rainfall 0.00 in
Snow Depth Not available.
UV 9 out of 12
Pollen 9.80 out of 12
Air Quality Not available.
Flu Activity Not available.
METAR KORH 021654Z 21011KT 10SM R11/5500VP6000FT CLR 27/17 A2999 RMK AO2 SLP152 T02720167
Pressure 29.98 in
Visibility 10.0 miles
Clouds Clear
Heat Index 85 °F
Dew Point 68 °F
Humidity 61%
Rainfall 0.00 in
Snow Depth Not available.
UV 9 out of 12
Pollen 9.80 out of 12
Air Quality Not available.
Flu Activity Not available.
METAR KORH 021654Z 21011KT 10SM R11/5500VP6000FT CLR 27/17 A2999 RMK AO2 SLP152 T02720167

10-Day Weather Forecast

×

Almanac

Astronomy

Sep. 02, 2015 Rise Set
Actual Time
Civil Twilight
Nautical Twilight
Astronomical Twilight
Moon
Length of Visible Light
Length of Day
Tomorrow will be .
, % of the Moon is Illuminated

Today's Extremes

State Highs State Lows

Community

WunderPhotos

Upload Photos

1,851,785 photos uploaded!

WunderBlogs® & News

Nearby

Air Quality

  Air Quality AQ Index Pollutant
Not available.

Snow Depth

Station Depth Elevation

Earthquake Activity

City Distance Mag. Time & Date
Minimum magnitude displayed is 2.5.

Coastal Water Temperatures

Place Temperature

Stations

Nearby Weather Stations

Station Location Temp. Windchill Dew Point Humidity Wind Precip. Elev Updated Type